Weather at Atlin Airport

Public forecast

Using degrees Celsius for public forecast. Weather courtesy of forecast.io.

Closest aviation weather report (METAR) to Atlin Airport

Closest report is Teslin Airport, 45.3 nm (83.9 km) NE.

2024/05/28 22:00 (retrieved 48 minutes ago)

CYZW 282200Z 23004KT 190V300 25SM FEW071 BKN099 BKN260 12/M03 A2981 RMK CU2AC3CI1 TCU TOP OVR RDG E VIRGA E-SE DIST PCPN SW-W SLP124 DENSITY ALT 2600FT

Closest aviation forecast (TAF) to Atlin Airport

Closest forecast is Teslin Airport, 45.3 nm (83.9 km) NE.

2024/05/28 18:00 (retrieved 5 hours ago)

TAF CYZW 281740Z 2818/2824 18005KT P6SM FEW050 FEW080 SCT260 FM282200 18005KT P6SM SCT050 SCT200 TEMPO 2822/2824 P6SM -SHRA BKN050 BKN200 RMK NXT FCST BY 291800Z